sensor_id;sensor_type;location;lat;lon;timestamp;P1;durP1;ratioP1;P2;durP2;ratioP2
9773;SDS011;4926;42.670;23.316;2022-07-23T00:02:03;12.70;;;7.10;;
9773;SDS011;4926;42.670;23.316;2022-07-23T00:04:31;13.35;;;7.35;;
9773;SDS011;4926;42.670;23.316;2022-07-23T00:06:59;7.88;;;6.90;;
9773;SDS011;4926;42.670;23.316;2022-07-23T00:09:29;10.52;;;7.07;;
9773;SDS011;4926;42.670;23.316;2022-07-23T00:11:56;11.05;;;7.32;;
9773;SDS011;4926;42.670;23.316;2022-07-23T00:14:23;15.13;;;7.68;;
9773;SDS011;4926;42.670;23.316;2022-07-23T00:16:50;12.00;;;7.85;;
9773;SDS011;4926;42.670;23.316;2022-07-23T00:19:16;13.95;;;8.10;;
9773;SDS011;4926;42.670;23.316;2022-07-23T00:21:43;13.30;;;8.60;;
9773;SDS011;4926;42.670;23.316;2022-07-23T00:24:11;10.80;;;8.30;;
9773;SDS011;4926;42.670;23.316;2022-07-23T00:26:38;10.65;;;7.45;;
9773;SDS011;4926;42.670;23.316;2022-07-23T00:29:05;12.13;;;8.13;;
9773;SDS011;4926;42.670;23.316;2022-07-23T00:31:34;13.52;;;8.27;;
9773;SDS011;4926;42.670;23.316;2022-07-23T00:34:03;14.27;;;8.50;;
9773;SDS011;4926;42.670;23.316;2022-07-23T00:36:30;17.13;;;8.63;;
9773;SDS011;4926;42.670;23.316;2022-07-23T00:38:57;9.02;;;7.70;;
9773;SDS011;4926;42.670;23.316;2022-07-23T00:41:25;11.55;;;8.40;;
9773;SDS011;4926;42.670;23.316;2022-07-23T00:43:52;10.38;;;8.13;;
9773;SDS011;4926;42.670;23.316;2022-07-23T00:46:24;10.85;;;7.93;;
9773;SDS011;4926;42.670;23.316;2022-07-23T00:48:52;9.82;;;8.50;;
9773;SDS011;4926;42.670;23.316;2022-07-23T00:51:18;15.55;;;8.98;;
9773;SDS011;4926;42.670;23.316;2022-07-23T00:53:47;11.45;;;7.97;;
9773;SDS011;4926;42.670;23.316;2022-07-23T00:56:14;9.85;;;8.55;;
9773;SDS011;4926;42.670;23.316;2022-07-23T00:58:42;9.60;;;8.00;;
9773;SDS011;4926;42.670;23.316;2022-07-23T01:01:09;11.77;;;8.50;;
9773;SDS011;4926;42.670;23.316;2022-07-23T01:03:39;12.35;;;8.27;;
9773;SDS011;4926;42.670;23.316;2022-07-23T01:06:06;9.63;;;7.55;;
9773;SDS011;4926;42.670;23.316;2022-07-23T01:08:33;10.82;;;7.25;;
9773;SDS011;4926;42.670;23.316;2022-07-23T01:11:03;7.95;;;6.78;;
9773;SDS011;4926;42.670;23.316;2022-07-23T01:13:30;10.13;;;6.40;;
9773;SDS011;4926;42.670;23.316;2022-07-23T01:16:01;8.05;;;6.50;;
9773;SDS011;4926;42.670;23.316;2022-07-23T01:18:28;11.15;;;6.30;;
9773;SDS011;4926;42.670;23.316;2022-07-23T01:20:54;10.40;;;6.30;;
9773;SDS011;4926;42.670;23.316;2022-07-23T01:23:23;8.18;;;6.05;;
9773;SDS011;4926;42.670;23.316;2022-07-23T01:25:51;8.82;;;6.25;;
9773;SDS011;4926;42.670;23.316;2022-07-23T01:28:18;9.40;;;5.93;;
9773;SDS011;4926;42.670;23.316;2022-07-23T01:30:45;8.18;;;6.60;;
9773;SDS011;4926;42.670;23.316;2022-07-23T01:33:13;9.65;;;6.32;;
9773;SDS011;4926;42.670;23.316;2022-07-23T01:35:40;10.52;;;6.30;;
9773;SDS011;4926;42.670;23.316;2022-07-23T01:38:07;8.80;;;6.72;;
9773;SDS011;4926;42.670;23.316;2022-07-23T01:40:40;8.63;;;6.60;;
9773;SDS011;4926;42.670;23.316;2022-07-23T01:43:07;9.70;;;5.88;;
9773;SDS011;4926;42.670;23.316;2022-07-23T01:45:33;7.22;;;6.38;;
9773;SDS011;4926;42.670;23.316;2022-07-23T01:48:00;6.68;;;5.90;;
9773;SDS011;4926;42.670;23.316;2022-07-23T01:50:30;9.30;;;5.95;;
9773;SDS011;4926;42.670;23.316;2022-07-23T01:55:45;9.68;;;6.40;;
9773;SDS011;4926;42.670;23.316;2022-07-23T01:58:12;6.97;;;6.10;;
9773;SDS011;4926;42.670;23.316;2022-07-23T02:00:38;9.90;;;6.10;;
9773;SDS011;4926;42.670;23.316;2022-07-23T02:03:08;9.27;;;6.57;;
9773;SDS011;4926;42.670;23.316;2022-07-23T02:05:35;14.05;;;6.47;;
9773;SDS011;4926;42.670;23.316;2022-07-23T02:08:01;11.00;;;6.22;;
9773;SDS011;4926;42.670;23.316;2022-07-23T02:10:28;9.15;;;6.03;;
9773;SDS011;4926;42.670;23.316;2022-07-23T02:12:57;8.73;;;6.13;;
9773;SDS011;4926;42.670;23.316;2022-07-23T02:15:23;11.65;;;6.30;;
9773;SDS011;4926;42.670;23.316;2022-07-23T02:17:51;8.05;;;5.57;;
9773;SDS011;4926;42.670;23.316;2022-07-23T02:20:28;7.25;;;6.13;;
9773;SDS011;4926;42.670;23.316;2022-07-23T02:22:58;12.20;;;6.55;;
9773;SDS011;4926;42.670;23.316;2022-07-23T02:25:25;10.27;;;6.82;;
9773;SDS011;4926;42.670;23.316;2022-07-23T02:27:54;10.18;;;6.60;;
9773;SDS011;4926;42.670;23.316;2022-07-23T02:30:23;10.13;;;6.70;;
9773;SDS011;4926;42.670;23.316;2022-07-23T02:32:52;7.22;;;6.10;;
9773;SDS011;4926;42.670;23.316;2022-07-23T02:35:19;11.70;;;7.15;;
9773;SDS011;4926;42.670;23.316;2022-07-23T02:37:46;8.45;;;6.20;;
9773;SDS011;4926;42.670;23.316;2022-07-23T02:40:13;10.57;;;6.90;;
9773;SDS011;4926;42.670;23.316;2022-07-23T02:42:42;9.13;;;6.43;;
9773;SDS011;4926;42.670;23.316;2022-07-23T02:45:12;9.48;;;6.72;;
9773;SDS011;4926;42.670;23.316;2022-07-23T02:47:41;8.35;;;6.88;;
9773;SDS011;4926;42.670;23.316;2022-07-23T02:50:08;11.02;;;6.70;;
9773;SDS011;4926;42.670;23.316;2022-07-23T02:52:37;12.15;;;7.13;;
9773;SDS011;4926;42.670;23.316;2022-07-23T02:55:04;7.82;;;6.60;;
9773;SDS011;4926;42.670;23.316;2022-07-23T02:57:32;7.60;;;6.78;;
9773;SDS011;4926;42.670;23.316;2022-07-23T03:00:06;9.93;;;6.68;;
9773;SDS011;4926;42.670;23.316;2022-07-23T03:02:34;11.85;;;7.40;;
9773;SDS011;4926;42.670;23.316;2022-07-23T03:05:05;9.27;;;6.55;;
9773;SDS011;4926;42.670;23.316;2022-07-23T03:07:32;9.52;;;6.65;;
9773;SDS011;4926;42.670;23.316;2022-07-23T03:10:02;8.90;;;6.55;;
9773;SDS011;4926;42.670;23.316;2022-07-23T03:12:31;11.48;;;7.38;;
9773;SDS011;4926;42.670;23.316;2022-07-23T03:14:58;8.95;;;6.28;;
9773;SDS011;4926;42.670;23.316;2022-07-23T03:17:27;7.88;;;7.05;;
9773;SDS011;4926;42.670;23.316;2022-07-23T03:19:54;10.27;;;7.35;;
9773;SDS011;4926;42.670;23.316;2022-07-23T03:22:22;8.70;;;7.57;;
9773;SDS011;4926;42.670;23.316;2022-07-23T03:24:51;12.10;;;9.55;;
9773;SDS011;4926;42.670;23.316;2022-07-23T03:27:21;10.05;;;9.05;;
9773;SDS011;4926;42.670;23.316;2022-07-23T03:29:48;12.95;;;8.55;;
9773;SDS011;4926;42.670;23.316;2022-07-23T03:32:15;13.27;;;8.05;;
9773;SDS011;4926;42.670;23.316;2022-07-23T03:34:43;14.18;;;8.60;;
9773;SDS011;4926;42.670;23.316;2022-07-23T03:37:10;10.13;;;7.97;;
9773;SDS011;4926;42.670;23.316;2022-07-23T03:39:44;13.27;;;8.30;;
9773;SDS011;4926;42.670;23.316;2022-07-23T03:42:11;13.93;;;8.27;;
9773;SDS011;4926;42.670;23.316;2022-07-23T03:44:44;12.70;;;8.90;;
9773;SDS011;4926;42.670;23.316;2022-07-23T03:47:10;11.93;;;8.63;;
9773;SDS011;4926;42.670;23.316;2022-07-23T03:49:42;10.30;;;8.40;;
9773;SDS011;4926;42.670;23.316;2022-07-23T03:52:11;10.45;;;8.05;;
9773;SDS011;4926;42.670;23.316;2022-07-23T03:54:42;9.43;;;7.93;;
9773;SDS011;4926;42.670;23.316;2022-07-23T03:57:10;12.48;;;8.52;;
9773;SDS011;4926;42.670;23.316;2022-07-23T03:59:37;13.82;;;9.25;;
9773;SDS011;4926;42.670;23.316;2022-07-23T04:02:03;13.88;;;8.15;;
9773;SDS011;4926;42.670;23.316;2022-07-23T04:04:33;16.42;;;8.63;;
9773;SDS011;4926;42.670;23.316;2022-07-23T04:07:00;13.02;;;7.65;;
9773;SDS011;4926;42.670;23.316;2022-07-23T04:09:27;11.60;;;7.88;;
9773;SDS011;4926;42.670;23.316;2022-07-23T04:11:58;12.77;;;8.40;;
9773;SDS011;4926;42.670;23.316;2022-07-23T04:14:27;10.38;;;8.52;;
9773;SDS011;4926;42.670;23.316;2022-07-23T04:16:56;12.65;;;7.80;;
9773;SDS011;4926;42.670;23.316;2022-07-23T04:19:23;11.70;;;8.15;;
9773;SDS011;4926;42.670;23.316;2022-07-23T04:21:50;13.35;;;8.57;;
9773;SDS011;4926;42.670;23.316;2022-07-23T04:24:19;13.68;;;8.27;;
9773;SDS011;4926;42.670;23.316;2022-07-23T04:26:46;14.13;;;7.88;;
9773;SDS011;4926;42.670;23.316;2022-07-23T04:29:15;11.88;;;8.82;;
9773;SDS011;4926;42.670;23.316;2022-07-23T04:31:46;12.90;;;8.32;;
9773;SDS011;4926;42.670;23.316;2022-07-23T04:34:13;14.65;;;8.38;;
9773;SDS011;4926;42.670;23.316;2022-07-23T04:36:39;10.45;;;8.82;;
9773;SDS011;4926;42.670;23.316;2022-07-23T04:39:06;14.32;;;8.55;;
9773;SDS011;4926;42.670;23.316;2022-07-23T04:41:34;13.65;;;9.05;;
9773;SDS011;4926;42.670;23.316;2022-07-23T04:44:05;10.57;;;8.40;;
9773;SDS011;4926;42.670;23.316;2022-07-23T04:46:32;12.13;;;8.50;;
9773;SDS011;4926;42.670;23.316;2022-07-23T04:49:00;12.45;;;8.65;;
9773;SDS011;4926;42.670;23.316;2022-07-23T04:51:27;11.52;;;8.43;;
9773;SDS011;4926;42.670;23.316;2022-07-23T04:53:54;11.18;;;9.25;;
9773;SDS011;4926;42.670;23.316;2022-07-23T04:56:24;10.38;;;8.38;;
9773;SDS011;4926;42.670;23.316;2022-07-23T04:58:51;14.55;;;9.23;;
9773;SDS011;4926;42.670;23.316;2022-07-23T05:01:18;13.60;;;8.80;;
9773;SDS011;4926;42.670;23.316;2022-07-23T05:03:45;11.45;;;8.43;;
9773;SDS011;4926;42.670;23.316;2022-07-23T05:06:14;12.07;;;8.82;;
9773;SDS011;4926;42.670;23.316;2022-07-23T05:08:41;11.20;;;8.40;;
9773;SDS011;4926;42.670;23.316;2022-07-23T05:11:08;11.48;;;7.70;;
9773;SDS011;4926;42.670;23.316;2022-07-23T05:13:35;9.70;;;7.90;;
9773;SDS011;4926;42.670;23.316;2022-07-23T05:16:05;10.27;;;8.85;;
9773;SDS011;4926;42.670;23.316;2022-07-23T05:18:34;12.88;;;8.55;;
9773;SDS011;4926;42.670;23.316;2022-07-23T05:21:03;10.55;;;8.10;;
9773;SDS011;4926;42.670;23.316;2022-07-23T05:23:31;11.40;;;8.50;;
9773;SDS011;4926;42.670;23.316;2022-07-23T05:25:58;14.07;;;9.25;;
9773;SDS011;4926;42.670;23.316;2022-07-23T05:28:26;9.65;;;8.52;;
9773;SDS011;4926;42.670;23.316;2022-07-23T05:30:53;11.43;;;9.10;;
9773;SDS011;4926;42.670;23.316;2022-07-23T05:33:20;12.57;;;8.23;;
9773;SDS011;4926;42.670;23.316;2022-07-23T05:35:47;13.48;;;8.88;;
9773;SDS011;4926;42.670;23.316;2022-07-23T05:38:13;16.08;;;8.65;;
9773;SDS011;4926;42.670;23.316;2022-07-23T05:40:41;8.77;;;7.88;;
9773;SDS011;4926;42.670;23.316;2022-07-23T05:43:11;12.35;;;8.07;;
9773;SDS011;4926;42.670;23.316;2022-07-23T05:45:38;11.82;;;8.15;;
9773;SDS011;4926;42.670;23.316;2022-07-23T05:48:05;9.57;;;8.55;;
9773;SDS011;4926;42.670;23.316;2022-07-23T05:50:32;9.00;;;7.72;;
9773;SDS011;4926;42.670;23.316;2022-07-23T05:52:58;11.57;;;9.43;;
9773;SDS011;4926;42.670;23.316;2022-07-23T05:55:25;13.00;;;8.30;;
9773;SDS011;4926;42.670;23.316;2022-07-23T05:57:55;10.68;;;8.48;;
9773;SDS011;4926;42.670;23.316;2022-07-23T06:00:22;11.50;;;8.65;;
9773;SDS011;4926;42.670;23.316;2022-07-23T06:02:49;12.05;;;8.52;;
9773;SDS011;4926;42.670;23.316;2022-07-23T06:05:16;11.10;;;8.98;;
9773;SDS011;4926;42.670;23.316;2022-07-23T06:07:45;11.00;;;8.35;;
9773;SDS011;4926;42.670;23.316;2022-07-23T06:10:12;12.13;;;8.75;;
9773;SDS011;4926;42.670;23.316;2022-07-23T06:12:39;16.80;;;8.35;;
9773;SDS011;4926;42.670;23.316;2022-07-23T06:15:08;13.20;;;8.35;;
9773;SDS011;4926;42.670;23.316;2022-07-23T06:17:36;9.43;;;8.27;;
9773;SDS011;4926;42.670;23.316;2022-07-23T06:20:05;12.82;;;9.40;;
9773;SDS011;4926;42.670;23.316;2022-07-23T06:22:34;12.75;;;8.65;;
9773;SDS011;4926;42.670;23.316;2022-07-23T06:25:00;11.00;;;8.88;;
9773;SDS011;4926;42.670;23.316;2022-07-23T06:27:27;12.70;;;9.00;;
9773;SDS011;4926;42.670;23.316;2022-07-23T06:29:54;13.77;;;8.93;;
9773;SDS011;4926;42.670;23.316;2022-07-23T06:32:22;17.33;;;8.73;;
9773;SDS011;4926;42.670;23.316;2022-07-23T06:34:52;11.30;;;8.48;;
9773;SDS011;4926;42.670;23.316;2022-07-23T06:37:18;8.82;;;7.95;;
9773;SDS011;4926;42.670;23.316;2022-07-23T06:39:45;12.75;;;8.80;;
9773;SDS011;4926;42.670;23.316;2022-07-23T06:42:13;16.67;;;8.82;;
9773;SDS011;4926;42.670;23.316;2022-07-23T06:44:42;13.43;;;8.70;;
9773;SDS011;4926;42.670;23.316;2022-07-23T06:47:11;11.13;;;8.15;;
9773;SDS011;4926;42.670;23.316;2022-07-23T06:49:39;11.82;;;7.82;;
9773;SDS011;4926;42.670;23.316;2022-07-23T06:52:06;12.25;;;8.27;;
9773;SDS011;4926;42.670;23.316;2022-07-23T06:54:38;11.70;;;8.30;;
9773;SDS011;4926;42.670;23.316;2022-07-23T06:57:04;17.17;;;8.77;;
9773;SDS011;4926;42.670;23.316;2022-07-23T06:59:31;14.63;;;8.40;;
9773;SDS011;4926;42.670;23.316;2022-07-23T07:02:01;11.18;;;7.57;;
9773;SDS011;4926;42.670;23.316;2022-07-23T07:04:28;12.88;;;8.13;;
9773;SDS011;4926;42.670;23.316;2022-07-23T07:06:58;11.80;;;8.30;;
9773;SDS011;4926;42.670;23.316;2022-07-23T07:09:25;12.25;;;8.43;;
9773;SDS011;4926;42.670;23.316;2022-07-23T07:11:52;12.48;;;8.07;;
9773;SDS011;4926;42.670;23.316;2022-07-23T07:14:21;10.88;;;7.63;;
9773;SDS011;4926;42.670;23.316;2022-07-23T07:16:53;9.43;;;7.93;;
9773;SDS011;4926;42.670;23.316;2022-07-23T07:19:20;11.80;;;8.35;;
9773;SDS011;4926;42.670;23.316;2022-07-23T07:21:49;11.43;;;7.70;;
9773;SDS011;4926;42.670;23.316;2022-07-23T07:24:17;11.43;;;7.45;;
9773;SDS011;4926;42.670;23.316;2022-07-23T07:26:44;10.27;;;7.80;;
9773;SDS011;4926;42.670;23.316;2022-07-23T07:29:11;12.05;;;7.85;;
9773;SDS011;4926;42.670;23.316;2022-07-23T07:31:38;12.85;;;7.90;;
9773;SDS011;4926;42.670;23.316;2022-07-23T07:34:05;9.63;;;7.60;;
9773;SDS011;4926;42.670;23.316;2022-07-23T07:36:31;12.75;;;7.85;;
9773;SDS011;4926;42.670;23.316;2022-07-23T07:38:58;13.80;;;7.65;;
9773;SDS011;4926;42.670;23.316;2022-07-23T07:41:27;11.38;;;7.95;;
9773;SDS011;4926;42.670;23.316;2022-07-23T07:43:53;16.63;;;7.88;;
9773;SDS011;4926;42.670;23.316;2022-07-23T07:46:20;14.13;;;7.18;;
9773;SDS011;4926;42.670;23.316;2022-07-23T07:48:49;12.00;;;7.90;;
9773;SDS011;4926;42.670;23.316;2022-07-23T07:51:20;9.13;;;7.28;;
9773;SDS011;4926;42.670;23.316;2022-07-23T07:53:47;13.75;;;7.32;;
9773;SDS011;4926;42.670;23.316;2022-07-23T07:56:13;11.52;;;7.60;;
9773;SDS011;4926;42.670;23.316;2022-07-23T07:58:41;12.73;;;7.38;;
9773;SDS011;4926;42.670;23.316;2022-07-23T08:01:08;10.07;;;7.68;;
9773;SDS011;4926;42.670;23.316;2022-07-23T08:03:35;11.70;;;6.90;;
9773;SDS011;4926;42.670;23.316;2022-07-23T08:06:04;12.73;;;7.18;;
9773;SDS011;4926;42.670;23.316;2022-07-23T08:08:31;12.63;;;7.13;;
9773;SDS011;4926;42.670;23.316;2022-07-23T08:10:58;12.02;;;7.32;;
9773;SDS011;4926;42.670;23.316;2022-07-23T08:13:28;12.43;;;7.78;;
9773;SDS011;4926;42.670;23.316;2022-07-23T08:15:56;11.48;;;7.18;;
9773;SDS011;4926;42.670;23.316;2022-07-23T08:18:23;11.32;;;7.60;;
9773;SDS011;4926;42.670;23.316;2022-07-23T08:20:49;10.98;;;7.40;;
9773;SDS011;4926;42.670;23.316;2022-07-23T08:23:16;14.27;;;7.72;;
9773;SDS011;4926;42.670;23.316;2022-07-23T08:25:47;11.52;;;7.57;;
9773;SDS011;4926;42.670;23.316;2022-07-23T08:28:14;14.27;;;7.90;;
9773;SDS011;4926;42.670;23.316;2022-07-23T08:30:42;15.63;;;7.68;;
9773;SDS011;4926;42.670;23.316;2022-07-23T08:33:16;11.38;;;7.50;;
9773;SDS011;4926;42.670;23.316;2022-07-23T08:35:45;15.13;;;7.07;;
9773;SDS011;4926;42.670;23.316;2022-07-23T08:38:15;10.00;;;7.47;;
9773;SDS011;4926;42.670;23.316;2022-07-23T08:40:47;11.05;;;7.60;;
9773;SDS011;4926;42.670;23.316;2022-07-23T08:43:19;15.45;;;7.65;;
9773;SDS011;4926;42.670;23.316;2022-07-23T08:45:53;18.30;;;8.05;;
9773;SDS011;4926;42.670;23.316;2022-07-23T08:48:26;12.57;;;7.80;;
9773;SDS011;4926;42.670;23.316;2022-07-23T08:50:58;9.68;;;8.05;;
9773;SDS011;4926;42.670;23.316;2022-07-23T08:53:26;12.68;;;7.63;;
9773;SDS011;4926;42.670;23.316;2022-07-23T08:55:54;14.23;;;7.88;;
9773;SDS011;4926;42.670;23.316;2022-07-23T08:58:22;14.00;;;7.63;;
9773;SDS011;4926;42.670;23.316;2022-07-23T09:00:55;12.13;;;7.65;;
9773;SDS011;4926;42.670;23.316;2022-07-23T09:03:23;8.75;;;7.35;;
9773;SDS011;4926;42.670;23.316;2022-07-23T09:05:53;10.50;;;7.50;;
9773;SDS011;4926;42.670;23.316;2022-07-23T09:08:24;10.35;;;7.57;;
9773;SDS011;4926;42.670;23.316;2022-07-23T09:11:01;15.95;;;7.38;;
9773;SDS011;4926;42.670;23.316;2022-07-23T09:13:34;10.70;;;7.80;;
9773;SDS011;4926;42.670;23.316;2022-07-23T09:16:04;11.60;;;7.68;;
9773;SDS011;4926;42.670;23.316;2022-07-23T09:18:41;12.27;;;7.68;;
9773;SDS011;4926;42.670;23.316;2022-07-23T09:21:21;11.13;;;7.05;;
9773;SDS011;4926;42.670;23.316;2022-07-23T09:23:55;11.95;;;7.13;;
9773;SDS011;4926;42.670;23.316;2022-07-23T09:26:30;10.10;;;6.85;;
9773;SDS011;4926;42.670;23.316;2022-07-23T09:29:00;11.93;;;7.63;;
9773;SDS011;4926;42.670;23.316;2022-07-23T09:31:47;11.93;;;7.38;;
9773;SDS011;4926;42.670;23.316;2022-07-23T09:34:19;10.48;;;6.75;;
9773;SDS011;4926;42.670;23.316;2022-07-23T09:36:49;7.45;;;6.32;;
9773;SDS011;4926;42.670;23.316;2022-07-23T09:39:22;12.98;;;7.10;;
9773;SDS011;4926;42.670;23.316;2022-07-23T09:41:52;11.68;;;6.85;;
9773;SDS011;4926;42.670;23.316;2022-07-23T09:44:20;7.25;;;6.00;;
9773;SDS011;4926;42.670;23.316;2022-07-23T09:46:50;13.10;;;6.50;;
9773;SDS011;4926;42.670;23.316;2022-07-23T09:49:23;12.05;;;6.68;;
9773;SDS011;4926;42.670;23.316;2022-07-23T09:51:55;9.38;;;5.70;;
9773;SDS011;4926;42.670;23.316;2022-07-23T09:54:24;16.15;;;5.50;;
9773;SDS011;4926;42.670;23.316;2022-07-23T09:56:58;10.80;;;6.35;;
9773;SDS011;4926;42.670;23.316;2022-07-23T09:59:32;7.00;;;5.75;;
9773;SDS011;4926;42.670;23.316;2022-07-23T10:02:03;12.25;;;6.35;;
9773;SDS011;4926;42.670;23.316;2022-07-23T10:04:38;11.50;;;5.80;;
9773;SDS011;4926;42.670;23.316;2022-07-23T10:07:08;10.25;;;5.97;;
9773;SDS011;4926;42.670;23.316;2022-07-23T10:09:36;12.48;;;5.72;;
9773;SDS011;4926;42.670;23.316;2022-07-23T10:12:05;10.80;;;5.97;;
9773;SDS011;4926;42.670;23.316;2022-07-23T10:14:44;7.78;;;5.93;;
9773;SDS011;4926;42.670;23.316;2022-07-23T10:17:12;15.30;;;6.95;;
9773;SDS011;4926;42.670;23.316;2022-07-23T10:19:39;11.18;;;6.40;;
9773;SDS011;4926;42.670;23.316;2022-07-23T10:22:08;11.00;;;5.88;;
9773;SDS011;4926;42.670;23.316;2022-07-23T10:24:44;10.73;;;5.80;;
9773;SDS011;4926;42.670;23.316;2022-07-23T10:27:23;8.75;;;5.97;;
9773;SDS011;4926;42.670;23.316;2022-07-23T10:30:11;7.65;;;6.10;;
9773;SDS011;4926;42.670;23.316;2022-07-23T10:32:49;9.30;;;6.28;;
9773;SDS011;4926;42.670;23.316;2022-07-23T10:35:26;11.85;;;6.53;;
9773;SDS011;4926;42.670;23.316;2022-07-23T10:38:01;14.48;;;6.38;;
9773;SDS011;4926;42.670;23.316;2022-07-23T10:40:33;8.05;;;5.55;;
9773;SDS011;4926;42.670;23.316;2022-07-23T10:43:02;11.02;;;6.05;;
9773;SDS011;4926;42.670;23.316;2022-07-23T10:45:42;13.63;;;6.00;;
9773;SDS011;4926;42.670;23.316;2022-07-23T10:48:13;9.57;;;6.07;;
9773;SDS011;4926;42.670;23.316;2022-07-23T10:50:41;11.25;;;5.90;;
9773;SDS011;4926;42.670;23.316;2022-07-23T10:53:15;8.20;;;5.75;;
9773;SDS011;4926;42.670;23.316;2022-07-23T10:55:47;9.65;;;5.82;;
9773;SDS011;4926;42.670;23.316;2022-07-23T10:58:23;9.88;;;5.80;;
9773;SDS011;4926;42.670;23.316;2022-07-23T11:01:31;12.13;;;5.75;;
9773;SDS011;4926;42.670;23.316;2022-07-23T11:04:02;13.55;;;6.28;;
9773;SDS011;4926;42.670;23.316;2022-07-23T11:09:41;9.73;;;5.63;;
9773;SDS011;4926;42.670;23.316;2022-07-23T11:15:04;14.38;;;5.78;;
9773;SDS011;4926;42.670;23.316;2022-07-23T11:17:37;13.25;;;5.80;;
9773;SDS011;4926;42.670;23.316;2022-07-23T11:20:20;14.13;;;5.97;;
9773;SDS011;4926;42.670;23.316;2022-07-23T11:22:49;18.83;;;6.32;;
9773;SDS011;4926;42.670;23.316;2022-07-23T11:25:33;24.55;;;7.03;;
9773;SDS011;4926;42.670;23.316;2022-07-23T11:28:09;16.98;;;5.75;;
9773;SDS011;4926;42.670;23.316;2022-07-23T11:30:47;14.60;;;6.30;;
9773;SDS011;4926;42.670;23.316;2022-07-23T11:33:20;11.75;;;5.63;;
9773;SDS011;4926;42.670;23.316;2022-07-23T11:35:49;14.77;;;5.90;;
9773;SDS011;4926;42.670;23.316;2022-07-23T11:38:27;16.52;;;6.07;;
9773;SDS011;4926;42.670;23.316;2022-07-23T11:40:58;14.23;;;6.43;;
9773;SDS011;4926;42.670;23.316;2022-07-23T11:43:31;11.13;;;6.20;;
9773;SDS011;4926;42.670;23.316;2022-07-23T11:46:01;12.95;;;6.13;;
9773;SDS011;4926;42.670;23.316;2022-07-23T11:48:29;9.85;;;5.82;;
9773;SDS011;4926;42.670;23.316;2022-07-23T11:50:57;11.35;;;5.25;;
9773;SDS011;4926;42.670;23.316;2022-07-23T11:53:25;13.15;;;5.43;;
9773;SDS011;4926;42.670;23.316;2022-07-23T11:55:53;11.80;;;5.60;;
9773;SDS011;4926;42.670;23.316;2022-07-23T11:58:22;9.95;;;5.75;;
9773;SDS011;4926;42.670;23.316;2022-07-23T12:00:49;14.48;;;5.47;;
9773;SDS011;4926;42.670;23.316;2022-07-23T12:03:16;15.30;;;5.40;;
9773;SDS011;4926;42.670;23.316;2022-07-23T12:05:48;14.23;;;5.70;;
9773;SDS011;4926;42.670;23.316;2022-07-23T12:08:15;17.77;;;6.55;;
9773;SDS011;4926;42.670;23.316;2022-07-23T12:10:43;13.05;;;5.72;;
9773;SDS011;4926;42.670;23.316;2022-07-23T12:13:11;19.50;;;6.90;;
9773;SDS011;4926;42.670;23.316;2022-07-23T12:15:47;20.48;;;6.22;;
9773;SDS011;4926;42.670;23.316;2022-07-23T12:18:17;17.95;;;5.72;;
9773;SDS011;4926;42.670;23.316;2022-07-23T12:20:48;12.77;;;5.32;;
9773;SDS011;4926;42.670;23.316;2022-07-23T12:23:17;14.82;;;5.22;;
9773;SDS011;4926;42.670;23.316;2022-07-23T12:25:48;15.27;;;5.47;;
9773;SDS011;4926;42.670;23.316;2022-07-23T12:28:16;15.43;;;5.88;;
9773;SDS011;4926;42.670;23.316;2022-07-23T12:30:46;15.98;;;5.57;;
9773;SDS011;4926;42.670;23.316;2022-07-23T12:33:15;12.60;;;5.65;;
9773;SDS011;4926;42.670;23.316;2022-07-23T12:35:48;15.50;;;5.95;;
9773;SDS011;4926;42.670;23.316;2022-07-23T12:38:16;12.93;;;5.38;;
9773;SDS011;4926;42.670;23.316;2022-07-23T12:40:44;11.98;;;5.10;;
9773;SDS011;4926;42.670;23.316;2022-07-23T12:43:18;13.77;;;5.60;;
9773;SDS011;4926;42.670;23.316;2022-07-23T12:45:49;14.80;;;5.40;;
9773;SDS011;4926;42.670;23.316;2022-07-23T12:48:18;13.38;;;5.32;;
9773;SDS011;4926;42.670;23.316;2022-07-23T12:50:51;12.73;;;5.38;;
9773;SDS011;4926;42.670;23.316;2022-07-23T12:53:24;21.90;;;5.82;;
9773;SDS011;4926;42.670;23.316;2022-07-23T12:56:03;15.15;;;5.30;;
9773;SDS011;4926;42.670;23.316;2022-07-23T13:01:23;13.95;;;5.45;;
9773;SDS011;4926;42.670;23.316;2022-07-23T13:03:55;12.43;;;5.65;;
9773;SDS011;4926;42.670;23.316;2022-07-23T13:06:24;18.48;;;6.07;;
9773;SDS011;4926;42.670;23.316;2022-07-23T13:08:54;16.08;;;5.45;;
9773;SDS011;4926;42.670;23.316;2022-07-23T13:11:20;16.73;;;5.50;;
9773;SDS011;4926;42.670;23.316;2022-07-23T13:13:48;13.70;;;5.18;;
9773;SDS011;4926;42.670;23.316;2022-07-23T13:16:15;14.63;;;5.38;;
9773;SDS011;4926;42.670;23.316;2022-07-23T13:18:44;15.80;;;5.05;;
9773;SDS011;4926;42.670;23.316;2022-07-23T13:21:10;18.23;;;5.40;;
9773;SDS011;4926;42.670;23.316;2022-07-23T13:23:37;13.68;;;5.35;;
9773;SDS011;4926;42.670;23.316;2022-07-23T13:26:04;15.23;;;5.65;;
9773;SDS011;4926;42.670;23.316;2022-07-23T13:28:31;12.93;;;5.32;;
9773;SDS011;4926;42.670;23.316;2022-07-23T13:30:58;16.98;;;5.65;;
9773;SDS011;4926;42.670;23.316;2022-07-23T13:33:25;12.95;;;5.22;;
9773;SDS011;4926;42.670;23.316;2022-07-23T13:35:53;14.63;;;5.07;;
9773;SDS011;4926;42.670;23.316;2022-07-23T13:38:20;14.77;;;5.20;;
9773;SDS011;4926;42.670;23.316;2022-07-23T13:40:48;11.48;;;5.20;;
9773;SDS011;4926;42.670;23.316;2022-07-23T13:43:17;13.55;;;5.43;;
9773;SDS011;4926;42.670;23.316;2022-07-23T13:45:49;13.88;;;5.20;;
9773;SDS011;4926;42.670;23.316;2022-07-23T13:48:17;16.85;;;5.65;;
9773;SDS011;4926;42.670;23.316;2022-07-23T13:50:44;14.40;;;5.18;;
9773;SDS011;4926;42.670;23.316;2022-07-23T13:53:14;14.52;;;6.50;;
9773;SDS011;4926;42.670;23.316;2022-07-23T13:55:42;12.52;;;5.50;;
9773;SDS011;4926;42.670;23.316;2022-07-23T13:58:10;11.73;;;5.60;;
9773;SDS011;4926;42.670;23.316;2022-07-23T14:00:37;11.13;;;5.18;;
9773;SDS011;4926;42.670;23.316;2022-07-23T14:03:06;16.75;;;5.90;;
9773;SDS011;4926;42.670;23.316;2022-07-23T14:05:38;11.02;;;4.85;;
9773;SDS011;4926;42.670;23.316;2022-07-23T14:08:07;10.65;;;4.65;;
9773;SDS011;4926;42.670;23.316;2022-07-23T14:10:40;12.63;;;5.50;;
9773;SDS011;4926;42.670;23.316;2022-07-23T14:13:09;10.43;;;5.28;;
9773;SDS011;4926;42.670;23.316;2022-07-23T14:15:36;12.05;;;5.15;;
9773;SDS011;4926;42.670;23.316;2022-07-23T14:18:05;11.27;;;5.30;;
9773;SDS011;4926;42.670;23.316;2022-07-23T14:20:33;12.55;;;5.47;;
9773;SDS011;4926;42.670;23.316;2022-07-23T14:23:00;10.32;;;5.10;;
9773;SDS011;4926;42.670;23.316;2022-07-23T14:25:27;11.15;;;5.20;;
9773;SDS011;4926;42.670;23.316;2022-07-23T14:27:56;10.93;;;5.53;;
9773;SDS011;4926;42.670;23.316;2022-07-23T14:30:26;14.60;;;5.50;;
9773;SDS011;4926;42.670;23.316;2022-07-23T14:32:53;12.57;;;5.07;;
9773;SDS011;4926;42.670;23.316;2022-07-23T14:35:20;13.25;;;5.00;;
9773;SDS011;4926;42.670;23.316;2022-07-23T14:37:48;15.65;;;5.60;;
9773;SDS011;4926;42.670;23.316;2022-07-23T14:40:15;9.63;;;4.78;;
9773;SDS011;4926;42.670;23.316;2022-07-23T14:42:42;14.35;;;5.90;;
9773;SDS011;4926;42.670;23.316;2022-07-23T14:45:10;16.88;;;5.68;;
9773;SDS011;4926;42.670;23.316;2022-07-23T14:47:37;10.20;;;5.07;;
9773;SDS011;4926;42.670;23.316;2022-07-23T14:50:04;13.35;;;5.43;;
9773;SDS011;4926;42.670;23.316;2022-07-23T14:52:32;11.73;;;5.05;;
9773;SDS011;4926;42.670;23.316;2022-07-23T14:54:59;14.95;;;5.65;;
9773;SDS011;4926;42.670;23.316;2022-07-23T14:57:27;21.27;;;5.95;;
9773;SDS011;4926;42.670;23.316;2022-07-23T14:59:54;13.95;;;5.28;;
9773;SDS011;4926;42.670;23.316;2022-07-23T15:02:24;15.13;;;5.30;;
9773;SDS011;4926;42.670;23.316;2022-07-23T15:04:51;14.93;;;5.50;;
9773;SDS011;4926;42.670;23.316;2022-07-23T15:07:18;13.55;;;5.57;;
9773;SDS011;4926;42.670;23.316;2022-07-23T15:09:46;14.90;;;5.68;;
9773;SDS011;4926;42.670;23.316;2022-07-23T15:12:13;18.52;;;6.30;;
9773;SDS011;4926;42.670;23.316;2022-07-23T15:14:40;13.70;;;5.40;;